Terminal Aerodrome Forecast
Issued by NWS Sioux Falls, SD

Home | Current Version | Previous Version | Graphics & Text | Print | Product List | Glossary On
Versions: 1 2 3 4 5 6 7 8 9 10 11 12 13 14 15 16 17 18 19 20 21 22 23 24 25 26 27 28 29
000
FTUS43 KFSD 182347
TAFSUX
TAF
KSUX 182347Z 1900/1924 16014KT P6SM SCT025
     FM190600 15012KT P6SM SCT015
     FM190900 15011KT P6SM OVC006
     FM191500 22014G20KT P6SM BKN015
     FM192000 19017G25KT P6SM SCT025=

USA.gov is the U.S. government's official web portal to all federal, state and local government web resources and services.